x

Buoy B01 - Western Maine Shelf (44030) Weather Station

9:04pm - Wed 10th Feb 2016 All times are EST. -5 hours from GMT.

  • Wind
    18mph, 22mph gusts
  • Sea Temp 42°f
  • 空気 Temp 36°f
  • Sea Pressure 1001mb
  • Buoy B01 - Western Maine Shelf
  • Buoy B01 - Western Maine Shelf

More Historic Weather Station data

Upgrade to MSW Pro to gain access to the past 30 days of data for over 8000 Wavebouys and Weather Stations around the globe.

Join Pro

Comparision Forecast

View Surf forecast
   
Wed 02/10 9:04pm  -   -  18 22 mph 1001mb 42f 36f
8:04pm 4.5ft 11s 16 20 mph 1001.2mb 42f 36f
7:04pm 5ft 11s 13 18 mph 1001.4mb 42f 35f
6:04pm 5ft 11s 11 13 mph 1001.3mb 42f 35f
5:04pm 5ft 11s 13 16 mph 1000.6mb 42f 35f
4:04pm 4.5ft 11s 9 11 mph 1000mb 42f 34f
3:04pm 5ft 11s 9 13 mph 999.6mb 42f 34f
2:04pm 4ft 11s 9 13 mph 999.6mb 42f 33f
1:04pm 4ft 11s 11 13 mph 999.7mb 42f 32f
12:04pm 4ft 11s 11 13 mph 1000.5mb 42f 32f
11:04am  -   -  11 13 mph 1001.5mb 42f 32f
10:04am  -   -  11 16 mph 1001.8mb 42f 32f
9:04am  -   -  13 18 mph 1002mb 42f 32f
8:04am  -   -  13 18 mph - 42f 32f
7:04am 5ft 11s 13 16 mph - 42f 31f
6:04am 4.5ft 11s 9 13 mph - 42f 30f
5:04am 6ft 11s 7 11 mph - 42f 28f
4:04am 6ft 11s 7 9 mph - 42f 28f
3:04am 6ft 11s 2 4 mph - 42f 27f
2:04am 8.5ft 11s 4 7 mph - 42f 27f
1:04am 6ft 11s 4
mph
- 42f 26f
12:04am 6ft 11s 7 9 mph - 42f 26f
Tue 02/09 11:04pm 7ft 16s 7 9 mph - 42f 26f
10:04pm 9ft 16s 7 9 mph - 42f 25f
9:04pm 8ft 11s 7 9 mph - 42f 25f
8:04pm  -   -  7 11 mph - 42f 25f
7:04pm 6.5ft 11s 7 9 mph - 42f 25f
6:04pm  -   -  9 13 mph - 42f 25f
5:04pm 13.5ft 11s 9 16 mph - 42f 25f
4:04pm 16ft 16s 9 13 mph 1010.7mb 42f 25f
3:04pm 14ft 11s 11 18 mph 1009.1mb 42f 24f
2:04pm 15.5ft 16s 9 16 mph 1009.4mb 42f 24f
1:04pm 14ft 16s 9 13 mph 1008.4mb 42f 24f
12:04pm  -   -  9 16 mph 1008.9mb 42f 23f
11:04am 12.5ft 16s 11 16 mph 1006.2mb 42f 23f
10:04am  -   -  16 20 mph 1004.6mb 42f 23f
9:04am 11ft 11s 11 16 mph 1004mb 42f 23f
8:04am  -   -  18 25 mph 1003.8mb 42f 23f
7:04am  -   -  20 27 mph 1002.3mb 42f 23f
6:04am 19ft 16s 18 22 mph 1001.6mb 42f 22f
5:04am  -   -  18 22 mph 1001.2mb 42f 22f
4:04am 15ft 11s 18 22 mph 1001mb 42f 22f
3:04am 17.5ft 11s 20 29 mph 1002.1mb 42f 22f
2:04am  -   -  22 29 mph 1004mb 42f 24f
1:04am 14ft 11s 25 27 mph 1004.2mb 42f 24f
12:04am 15ft 11s 25 29 mph 1003.7mb 42f 24f
Mon 02/08 11:04pm  -   -  27 31 mph 1003.5mb 42f 24f
10:04pm 14ft 11s 29 36 mph 1003.2mb 42f 23f
9:04pm 15ft 11s 29 36 mph 1003.1mb 43f 23f
8:04pm  -   -  29 34 mph 1002.9mb 43f 23f
7:04pm 13.5ft 11s 27 34 mph 1004.4mb 43f 24f
6:04pm 13ft 11s 29 36 mph 1004.5mb 43f 24f
5:04pm 14ft 11s 31 40 mph 1006.1mb 42f 25f
4:04pm 14ft 11s 31 43 mph 1005.9mb 42f 24f
3:04pm 10.5ft 11s 31 40 mph 1006.3mb 42f 24f
2:04pm 13ft 11s 31 38 mph 1006.7mb 43f 23f
1:04pm 11.5ft 11s 31 38 mph 1008.2mb 43f 22f
12:04pm 11ft 11s 29 36 mph 1009.7mb 43f 23f
11:04am 12.5ft 8s 29 34 mph 1011.2mb 43f 24f
10:04am 11.5ft 8s 29 36 mph 1011.9mb 43f 23f
9:04am 11.5ft 8s 31 38 mph 1012.1mb 43f 22f
8:04am 11ft 8s 31 38 mph 1012.9mb 43f 24f
7:04am 12ft 8s 31 40 mph 1013.8mb 43f 25f
6:04am 10ft 8s 31 38 mph 1013.3mb 43f 26f
5:04am 11.5ft 8s 31 38 mph 1014.3mb 43f 27f
4:04am 11ft 8s 31 38 mph 1015.3mb 43f 29f
3:04am 9ft 8s 31 38 mph 1015.9mb 43f 30f
2:04am 7ft 6s 29 36 mph 1017.1mb 43f 32f
1:04am 7ft 6s 29 34 mph 1017.8mb 43f 35f
12:04am 6.5ft 5s 27 34 mph 1018.4mb 43f 36f
Sun 02/07 11:04pm 4.5ft 5s 27 34 mph 1018.5mb 43f 37f
10:04pm 3.5ft 4s 20 25 mph 1018.9mb 43f 40f
9:04pm 3.5ft 11s 18 22 mph 1019.5mb 43f 40f
8:04pm 2ft 3s 16 20 mph 1020mb 43f 40f
7:04pm 2.5ft 11s 16 18 mph 1019.9mb 43f 40f
6:04pm 2ft 11s 11
mph
1020.5mb 43f 40f
5:04pm 1.6ft 11s 9
mph
1020.2mb 43f 40f
4:04pm 1.6ft 11s 7 9 mph 1020.2mb 43f 41f
3:04pm 1.6ft 11s 4 7 mph 1020.5mb 43f 42f
2:04pm 1.6ft 11s 11 16 mph 1019.5mb 43f 41f
1:04pm 1.3ft 4s 7 9 mph 1020mb 43f 41f
12:04pm 1.3ft 4s 11 13 mph 1020mb 43f 40f
11:04am 1.6ft 4s 11 13 mph 1020.5mb 43f 38f
10:04am 2ft 4s 11 16 mph 1020.4mb 43f 36f
9:04am 2.5ft 4s 13 16 mph 1020mb 43f 36f
8:04am 2.5ft 5s 16 18 mph 1019.7mb 42f 34f
7:04am 2.5ft 5s 18 22 mph 1019.9mb 42f 34f
6:04am 3ft 5s 20 25 mph 1019.6mb 42f 33f
5:04am 3ft 5s 20 22 mph 1019.5mb 43f 35f
4:04am 3ft 5s 20 22 mph 1019.5mb 43f 35f